sensor_id;sensor_type;location;lat;lon;timestamp;temperature;humidity
33109;HTU21D;19481;51.118;6.940;2022-11-15T00:02:10;11.45;67.02
33109;HTU21D;19481;51.118;6.940;2022-11-15T00:07:12;11.52;67.19
33109;HTU21D;19481;51.118;6.940;2022-11-15T00:12:13;11.60;67.07
33109;HTU21D;19481;51.118;6.940;2022-11-15T00:17:16;11.67;67.02
33109;HTU21D;19481;51.118;6.940;2022-11-15T00:22:18;11.69;67.45
33109;HTU21D;19481;51.118;6.940;2022-11-15T00:27:20;11.73;69.05
33109;HTU21D;19481;51.118;6.940;2022-11-15T00:32:22;11.79;68.73
33109;HTU21D;19481;51.118;6.940;2022-11-15T00:37:24;11.88;67.32
33109;HTU21D;19481;51.118;6.940;2022-11-15T00:42:26;11.92;67.97
33109;HTU21D;19481;51.118;6.940;2022-11-15T00:47:29;12.02;66.99
33109;HTU21D;19481;51.118;6.940;2022-11-15T00:52:30;12.08;67.00
33109;HTU21D;19481;51.118;6.940;2022-11-15T00:57:32;12.16;66.98
33109;HTU21D;19481;51.118;6.940;2022-11-15T01:02:35;12.19;67.15
33109;HTU21D;19481;51.118;6.940;2022-11-15T01:07:37;12.25;67.10
33109;HTU21D;19481;51.118;6.940;2022-11-15T01:12:38;12.26;67.23
33109;HTU21D;19481;51.118;6.940;2022-11-15T01:17:41;12.34;67.01
33109;HTU21D;19481;51.118;6.940;2022-11-15T01:22:43;12.36;67.08
33109;HTU21D;19481;51.118;6.940;2022-11-15T01:27:44;12.40;67.76
33109;HTU21D;19481;51.118;6.940;2022-11-15T01:32:47;12.40;67.18
33109;HTU21D;19481;51.118;6.940;2022-11-15T01:37:49;12.40;67.28
33109;HTU21D;19481;51.118;6.940;2022-11-15T01:42:50;12.38;67.52
33109;HTU21D;19481;51.118;6.940;2022-11-15T01:47:54;12.46;67.14
33109;HTU21D;19481;51.118;6.940;2022-11-15T01:52:56;12.47;67.45
33109;HTU21D;19481;51.118;6.940;2022-11-15T01:58:02;12.53;67.17
33109;HTU21D;19481;51.118;6.940;2022-11-15T02:03:07;12.53;67.21
33109;HTU21D;19481;51.118;6.940;2022-11-15T02:08:09;12.58;67.26
33109;HTU21D;19481;51.118;6.940;2022-11-15T02:13:20;12.61;68.47
33109;HTU21D;19481;51.118;6.940;2022-11-15T02:18:26;12.60;68.73
33109;HTU21D;19481;51.118;6.940;2022-11-15T02:23:48;12.59;70.19
33109;HTU21D;19481;51.118;6.940;2022-11-15T02:29:00;12.58;67.29
33109;HTU21D;19481;51.118;6.940;2022-11-15T02:34:10;12.58;68.62
33109;HTU21D;19481;51.118;6.940;2022-11-15T02:39:20;12.63;67.95
33109;HTU21D;19481;51.118;6.940;2022-11-15T02:44:26;12.63;67.34
33109;HTU21D;19481;51.118;6.940;2022-11-15T02:49:33;12.69;67.72
33109;HTU21D;19481;51.118;6.940;2022-11-15T02:54:35;12.69;67.34
33109;HTU21D;19481;51.118;6.940;2022-11-15T03:00:03;12.72;69.95
33109;HTU21D;19481;51.118;6.940;2022-11-15T03:05:14;12.71;68.05
33109;HTU21D;19481;51.118;6.940;2022-11-15T03:10:20;12.71;67.43
33109;HTU21D;19481;51.118;6.940;2022-11-15T03:15:28;12.71;67.58
33109;HTU21D;19481;51.118;6.940;2022-11-15T03:20:32;12.70;67.72
33109;HTU21D;19481;51.118;6.940;2022-11-15T03:25:40;12.70;68.72
33109;HTU21D;19481;51.118;6.940;2022-11-15T03:30:44;12.69;67.70
33109;HTU21D;19481;51.118;6.940;2022-11-15T03:35:49;12.67;68.28
33109;HTU21D;19481;51.118;6.940;2022-11-15T03:40:54;12.70;67.78
33109;HTU21D;19481;51.118;6.940;2022-11-15T03:46:01;12.69;67.75
33109;HTU21D;19481;51.118;6.940;2022-11-15T03:51:05;12.69;67.83
33109;HTU21D;19481;51.118;6.940;2022-11-15T03:56:07;12.70;67.89
33109;HTU21D;19481;51.118;6.940;2022-11-15T04:01:08;12.72;67.81
33109;HTU21D;19481;51.118;6.940;2022-11-15T04:06:11;12.72;67.86
33109;HTU21D;19481;51.118;6.940;2022-11-15T04:11:13;12.73;68.47
33109;HTU21D;19481;51.118;6.940;2022-11-15T04:16:15;12.62;69.73
33109;HTU21D;19481;51.118;6.940;2022-11-15T04:21:18;12.55;69.17
33109;HTU21D;19481;51.118;6.940;2022-11-15T04:26:37;12.49;69.68
33109;HTU21D;19481;51.118;6.940;2022-11-15T04:31:38;12.46;69.49
33109;HTU21D;19481;51.118;6.940;2022-11-15T04:36:41;12.48;69.36
33109;HTU21D;19481;51.118;6.940;2022-11-15T04:42:01;12.50;69.10
33109;HTU21D;19481;51.118;6.940;2022-11-15T04:47:02;12.57;68.82
33109;HTU21D;19481;51.118;6.940;2022-11-15T04:52:06;12.61;68.67
33109;HTU21D;19481;51.118;6.940;2022-11-15T04:57:07;12.65;68.65
33109;HTU21D;19481;51.118;6.940;2022-11-15T05:02:09;12.66;68.64
33109;HTU21D;19481;51.118;6.940;2022-11-15T05:07:12;12.72;68.49
33109;HTU21D;19481;51.118;6.940;2022-11-15T05:12:13;12.76;69.58
33109;HTU21D;19481;51.118;6.940;2022-11-15T05:17:15;12.78;68.41
33109;HTU21D;19481;51.118;6.940;2022-11-15T05:22:19;12.80;68.84
33109;HTU21D;19481;51.118;6.940;2022-11-15T05:27:21;12.85;68.38
33109;HTU21D;19481;51.118;6.940;2022-11-15T05:32:23;12.90;68.35
33109;HTU21D;19481;51.118;6.940;2022-11-15T05:37:26;12.90;68.31
33109;HTU21D;19481;51.118;6.940;2022-11-15T05:42:28;12.91;68.34
33109;HTU21D;19481;51.118;6.940;2022-11-15T05:47:30;12.93;69.58
33109;HTU21D;19481;51.118;6.940;2022-11-15T05:52:37;12.95;68.95
33109;HTU21D;19481;51.118;6.940;2022-11-15T05:57:39;12.97;68.26
33109;HTU21D;19481;51.118;6.940;2022-11-15T06:02:40;12.96;68.40
33109;HTU21D;19481;51.118;6.940;2022-11-15T06:07:43;12.95;68.70
33109;HTU21D;19481;51.118;6.940;2022-11-15T06:12:45;12.92;68.37
33109;HTU21D;19481;51.118;6.940;2022-11-15T06:17:47;12.89;68.87
33109;HTU21D;19481;51.118;6.940;2022-11-15T06:22:50;12.82;69.08
33109;HTU21D;19481;51.118;6.940;2022-11-15T06:27:51;12.78;68.75
33109;HTU21D;19481;51.118;6.940;2022-11-15T06:32:58;12.66;69.93
33109;HTU21D;19481;51.118;6.940;2022-11-15T06:38:06;12.57;69.16
33109;HTU21D;19481;51.118;6.940;2022-11-15T06:43:08;12.41;69.55
33109;HTU21D;19481;51.118;6.940;2022-11-15T06:48:09;12.36;69.42
33109;HTU21D;19481;51.118;6.940;2022-11-15T06:53:12;12.37;69.72
33109;HTU21D;19481;51.118;6.940;2022-11-15T06:58:14;12.41;69.68
33109;HTU21D;19481;51.118;6.940;2022-11-15T07:03:15;12.43;68.91
33109;HTU21D;19481;51.118;6.940;2022-11-15T07:08:18;12.47;68.62
33109;HTU21D;19481;51.118;6.940;2022-11-15T07:13:24;12.48;68.43
33109;HTU21D;19481;51.118;6.940;2022-11-15T07:18:25;12.45;68.63
33109;HTU21D;19481;51.118;6.940;2022-11-15T07:23:29;12.42;68.71
33109;HTU21D;19481;51.118;6.940;2022-11-15T07:28:31;12.42;69.04
33109;HTU21D;19481;51.118;6.940;2022-11-15T07:33:33;12.46;68.37
33109;HTU21D;19481;51.118;6.940;2022-11-15T07:38:36;12.48;68.46
33109;HTU21D;19481;51.118;6.940;2022-11-15T07:43:38;12.57;67.92
33109;HTU21D;19481;51.118;6.940;2022-11-15T07:48:39;12.78;67.28
33109;HTU21D;19481;51.118;6.940;2022-11-15T07:53:43;13.66;64.34
33109;HTU21D;19481;51.118;6.940;2022-11-15T07:58:45;14.56;62.05
33109;HTU21D;19481;51.118;6.940;2022-11-15T08:03:47;13.99;64.65
33109;HTU21D;19481;51.118;6.940;2022-11-15T08:08:50;13.91;64.89
33109;HTU21D;19481;51.118;6.940;2022-11-15T08:13:51;13.54;66.16
33109;HTU21D;19481;51.118;6.940;2022-11-15T08:18:53;13.37;66.45
33109;HTU21D;19481;51.118;6.940;2022-11-15T08:23:56;13.35;66.12
33109;HTU21D;19481;51.118;6.940;2022-11-15T08:28:57;13.27;66.25
33109;HTU21D;19481;51.118;6.940;2022-11-15T08:34:00;13.30;66.10
33109;HTU21D;19481;51.118;6.940;2022-11-15T08:39:04;13.30;66.04
33109;HTU21D;19481;51.118;6.940;2022-11-15T08:44:06;13.52;65.35
33109;HTU21D;19481;51.118;6.940;2022-11-15T08:49:07;14.00;63.78
33109;HTU21D;19481;51.118;6.940;2022-11-15T08:54:10;14.40;62.57
33109;HTU21D;19481;51.118;6.940;2022-11-15T08:59:12;14.74;62.27
33109;HTU21D;19481;51.118;6.940;2022-11-15T09:04:16;14.95;62.03
33109;HTU21D;19481;51.118;6.940;2022-11-15T09:09:19;14.59;62.86
33109;HTU21D;19481;51.118;6.940;2022-11-15T09:14:21;14.81;61.03
33109;HTU21D;19481;51.118;6.940;2022-11-15T09:19:22;14.85;62.05
33109;HTU21D;19481;51.118;6.940;2022-11-15T09:24:25;15.37;60.50
33109;HTU21D;19481;51.118;6.940;2022-11-15T09:29:27;15.99;58.44
33109;HTU21D;19481;51.118;6.940;2022-11-15T09:34:28;16.17;58.33
33109;HTU21D;19481;51.118;6.940;2022-11-15T09:39:31;15.77;58.77
33109;HTU21D;19481;51.118;6.940;2022-11-15T09:44:43;15.96;51.18
33109;HTU21D;19481;51.118;6.940;2022-11-15T09:49:51;16.45;54.01
33109;HTU21D;19481;51.118;6.940;2022-11-15T09:54:54;16.30;55.87
33109;HTU21D;19481;51.118;6.940;2022-11-15T10:00:06;15.86;51.69
33109;HTU21D;19481;51.118;6.940;2022-11-15T10:05:12;16.31;54.22
33109;HTU21D;19481;51.118;6.940;2022-11-15T10:10:22;16.22;56.33
33109;HTU21D;19481;51.118;6.940;2022-11-15T10:15:26;16.54;55.34
33109;HTU21D;19481;51.118;6.940;2022-11-15T10:20:29;16.82;53.87
33109;HTU21D;19481;51.118;6.940;2022-11-15T10:25:34;16.88;54.14
33109;HTU21D;19481;51.118;6.940;2022-11-15T10:30:38;17.23;52.36
33109;HTU21D;19481;51.118;6.940;2022-11-15T10:35:40;17.28;52.69
33109;HTU21D;19481;51.118;6.940;2022-11-15T10:40:44;17.02;51.82
33109;HTU21D;19481;51.118;6.940;2022-11-15T10:45:46;17.10;52.58
33109;HTU21D;19481;51.118;6.940;2022-11-15T10:50:50;17.47;50.72
33109;HTU21D;19481;51.118;6.940;2022-11-15T10:55:56;17.62;45.42
33109;HTU21D;19481;51.118;6.940;2022-11-15T11:01:09;18.05;40.85
33109;HTU21D;19481;51.118;6.940;2022-11-15T11:06:12;18.18;48.46
33109;HTU21D;19481;51.118;6.940;2022-11-15T11:11:15;18.56;47.57
33109;HTU21D;19481;51.118;6.940;2022-11-15T11:16:30;18.28;40.91
33109;HTU21D;19481;51.118;6.940;2022-11-15T11:21:42;17.81;46.83
33109;HTU21D;19481;51.118;6.940;2022-11-15T11:26:57;18.18;47.70
33109;HTU21D;19481;51.118;6.940;2022-11-15T11:32:09;17.73;48.07
33109;HTU21D;19481;51.118;6.940;2022-11-15T11:37:23;17.50;46.51
33109;HTU21D;19481;51.118;6.940;2022-11-15T11:42:35;17.56;48.06
33109;HTU21D;19481;51.118;6.940;2022-11-15T11:47:39;17.44;49.64
33109;HTU21D;19481;51.118;6.940;2022-11-15T11:52:48;16.87;47.57
33109;HTU21D;19481;51.118;6.940;2022-11-15T11:58:04;16.25;44.48
33109;HTU21D;19481;51.118;6.940;2022-11-15T12:03:10;16.00;50.90
33109;HTU21D;19481;51.118;6.940;2022-11-15T12:08:24;15.78;50.21
33109;HTU21D;19481;51.118;6.940;2022-11-15T12:13:30;15.66;50.45
33109;HTU21D;19481;51.118;6.940;2022-11-15T12:18:37;15.58;50.69
33109;HTU21D;19481;51.118;6.940;2022-11-15T12:23:42;15.58;49.03
33109;HTU21D;19481;51.118;6.940;2022-11-15T12:28:50;15.56;48.47
33109;HTU21D;19481;51.118;6.940;2022-11-15T12:33:56;15.58;49.58
33109;HTU21D;19481;51.118;6.940;2022-11-15T12:38:59;15.57;47.54
33109;HTU21D;19481;51.118;6.940;2022-11-15T12:44:03;15.65;48.32
33109;HTU21D;19481;51.118;6.940;2022-11-15T12:49:10;15.70;49.11
33109;HTU21D;19481;51.118;6.940;2022-11-15T12:59:56;16.11;47.09
33109;HTU21D;19481;51.118;6.940;2022-11-15T13:10:42;15.58;49.91
33109;HTU21D;19481;51.118;6.940;2022-11-15T13:15:56;15.56;47.22
33109;HTU21D;19481;51.118;6.940;2022-11-15T13:21:01;15.46;49.56
33109;HTU21D;19481;51.118;6.940;2022-11-15T13:26:23;15.39;49.47
33109;HTU21D;19481;51.118;6.940;2022-11-15T13:31:28;15.42;49.71
33109;HTU21D;19481;51.118;6.940;2022-11-15T13:36:32;15.45;49.76
33109;HTU21D;19481;51.118;6.940;2022-11-15T13:41:45;15.89;47.35
33109;HTU21D;19481;51.118;6.940;2022-11-15T13:46:48;15.55;49.80
33109;HTU21D;19481;51.118;6.940;2022-11-15T13:52:04;15.37;50.78
33109;HTU21D;19481;51.118;6.940;2022-11-15T13:57:11;15.30;50.44
33109;HTU21D;19481;51.118;6.940;2022-11-15T14:02:17;15.14;51.28
33109;HTU21D;19481;51.118;6.940;2022-11-15T14:07:20;15.14;51.30
33109;HTU21D;19481;51.118;6.940;2022-11-15T14:12:30;15.08;51.37
33109;HTU21D;19481;51.118;6.940;2022-11-15T14:17:37;15.03;51.82
33109;HTU21D;19481;51.118;6.940;2022-11-15T14:22:51;15.01;51.66
33109;HTU21D;19481;51.118;6.940;2022-11-15T14:28:13;14.93;52.13
33109;HTU21D;19481;51.118;6.940;2022-11-15T14:33:26;14.91;52.29
33109;HTU21D;19481;51.118;6.940;2022-11-15T14:38:29;14.80;52.75
33109;HTU21D;19481;51.118;6.940;2022-11-15T14:43:31;14.75;52.88
33109;HTU21D;19481;51.118;6.940;2022-11-15T14:48:34;14.72;52.98
33109;HTU21D;19481;51.118;6.940;2022-11-15T14:53:36;14.73;53.09
33109;HTU21D;19481;51.118;6.940;2022-11-15T14:58:38;14.69;53.28
33109;HTU21D;19481;51.118;6.940;2022-11-15T15:03:41;14.64;53.39
33109;HTU21D;19481;51.118;6.940;2022-11-15T15:08:44;14.65;53.73
33109;HTU21D;19481;51.118;6.940;2022-11-15T15:13:46;14.64;53.64
33109;HTU21D;19481;51.118;6.940;2022-11-15T15:18:49;14.60;53.75
33109;HTU21D;19481;51.118;6.940;2022-11-15T15:23:51;14.59;53.88
33109;HTU21D;19481;51.118;6.940;2022-11-15T15:28:54;14.57;53.89
33109;HTU21D;19481;51.118;6.940;2022-11-15T15:33:57;14.54;54.10
33109;HTU21D;19481;51.118;6.940;2022-11-15T15:38:59;14.49;54.19
33109;HTU21D;19481;51.118;6.940;2022-11-15T15:44:00;14.45;54.71
33109;HTU21D;19481;51.118;6.940;2022-11-15T15:49:03;14.40;54.46
33109;HTU21D;19481;51.118;6.940;2022-11-15T15:54:05;14.39;54.46
33109;HTU21D;19481;51.118;6.940;2022-11-15T15:59:06;14.38;54.58
33109;HTU21D;19481;51.118;6.940;2022-11-15T16:04:09;14.30;54.85
33109;HTU21D;19481;51.118;6.940;2022-11-15T16:09:13;14.24;55.08
33109;HTU21D;19481;51.118;6.940;2022-11-15T16:14:15;14.17;55.24
33109;HTU21D;19481;51.118;6.940;2022-11-15T16:19:18;14.13;55.55
33109;HTU21D;19481;51.118;6.940;2022-11-15T16:24:21;14.07;55.55
33109;HTU21D;19481;51.118;6.940;2022-11-15T16:29:22;14.06;55.56
33109;HTU21D;19481;51.118;6.940;2022-11-15T16:34:25;14.05;56.16
33109;HTU21D;19481;51.118;6.940;2022-11-15T16:39:27;14.12;56.68
33109;HTU21D;19481;51.118;6.940;2022-11-15T16:44:30;14.12;55.58
33109;HTU21D;19481;51.118;6.940;2022-11-15T16:49:33;14.15;55.66
33109;HTU21D;19481;51.118;6.940;2022-11-15T16:54:34;14.20;55.58
33109;HTU21D;19481;51.118;6.940;2022-11-15T16:59:36;14.20;56.03
33109;HTU21D;19481;51.118;6.940;2022-11-15T17:04:39;14.19;55.80
33109;HTU21D;19481;51.118;6.940;2022-11-15T17:09:41;14.22;55.90
33109;HTU21D;19481;51.118;6.940;2022-11-15T17:14:42;14.24;55.92
33109;HTU21D;19481;51.118;6.940;2022-11-15T17:19:46;14.25;55.90
33109;HTU21D;19481;51.118;6.940;2022-11-15T17:24:48;14.25;56.02
33109;HTU21D;19481;51.118;6.940;2022-11-15T17:29:50;14.24;56.02
33109;HTU21D;19481;51.118;6.940;2022-11-15T17:34:52;14.25;56.18
33109;HTU21D;19481;51.118;6.940;2022-11-15T17:39:54;14.26;56.15
33109;HTU21D;19481;51.118;6.940;2022-11-15T17:44:56;14.25;56.24
33109;HTU21D;19481;51.118;6.940;2022-11-15T17:49:59;14.23;56.42
33109;HTU21D;19481;51.118;6.940;2022-11-15T17:55:00;14.20;56.75
33109;HTU21D;19481;51.118;6.940;2022-11-15T18:00:02;14.09;57.13
33109;HTU21D;19481;51.118;6.940;2022-11-15T18:05:07;14.01;58.09
33109;HTU21D;19481;51.118;6.940;2022-11-15T18:10:09;13.83;58.29
33109;HTU21D;19481;51.118;6.940;2022-11-15T18:15:11;13.70;59.84
33109;HTU21D;19481;51.118;6.940;2022-11-15T18:20:14;13.61;61.67
33109;HTU21D;19481;51.118;6.940;2022-11-15T18:25:16;13.46;61.79
33109;HTU21D;19481;51.118;6.940;2022-11-15T18:30:18;13.37;60.11
33109;HTU21D;19481;51.118;6.940;2022-11-15T18:35:21;13.22;61.55
33109;HTU21D;19481;51.118;6.940;2022-11-15T18:40:22;13.11;62.47
33109;HTU21D;19481;51.118;6.940;2022-11-15T18:45:24;13.02;64.37
33109;HTU21D;19481;51.118;6.940;2022-11-15T18:50:27;12.94;63.17
33109;HTU21D;19481;51.118;6.940;2022-11-15T18:55:29;12.81;63.61
33109;HTU21D;19481;51.118;6.940;2022-11-15T19:00:31;12.76;64.25
33109;HTU21D;19481;51.118;6.940;2022-11-15T19:05:36;12.66;67.12
33109;HTU21D;19481;51.118;6.940;2022-11-15T19:10:38;12.66;68.30
33109;HTU21D;19481;51.118;6.940;2022-11-15T19:15:39;12.52;66.36
33109;HTU21D;19481;51.118;6.940;2022-11-15T19:20:42;12.48;65.80
33109;HTU21D;19481;51.118;6.940;2022-11-15T19:25:52;12.46;66.90
33109;HTU21D;19481;51.118;6.940;2022-11-15T19:31:02;12.43;70.29
33109;HTU21D;19481;51.118;6.940;2022-11-15T19:36:08;12.38;66.65
33109;HTU21D;19481;51.118;6.940;2022-11-15T19:41:12;12.38;67.96
33109;HTU21D;19481;51.118;6.940;2022-11-15T19:46:14;12.35;67.64
33109;HTU21D;19481;51.118;6.940;2022-11-15T19:51:19;12.38;67.82
33109;HTU21D;19481;51.118;6.940;2022-11-15T19:56:22;12.35;67.58
33109;HTU21D;19481;51.118;6.940;2022-11-15T20:01:25;12.35;71.80
33109;HTU21D;19481;51.118;6.940;2022-11-15T20:06:30;12.40;71.18
33109;HTU21D;19481;51.118;6.940;2022-11-15T20:11:32;12.36;68.13
33109;HTU21D;19481;51.118;6.940;2022-11-15T20:16:37;12.36;71.32
33109;HTU21D;19481;51.118;6.940;2022-11-15T20:21:40;12.36;68.53
33109;HTU21D;19481;51.118;6.940;2022-11-15T20:26:42;12.38;68.22
33109;HTU21D;19481;51.118;6.940;2022-11-15T20:31:44;12.40;74.02
33109;HTU21D;19481;51.118;6.940;2022-11-15T20:36:47;12.43;69.33
33109;HTU21D;19481;51.118;6.940;2022-11-15T20:41:48;12.37;69.63
33109;HTU21D;19481;51.118;6.940;2022-11-15T20:46:50;12.35;71.27
33109;HTU21D;19481;51.118;6.940;2022-11-15T20:51:53;12.37;69.45
33109;HTU21D;19481;51.118;6.940;2022-11-15T20:56:55;12.34;73.96
33109;HTU21D;19481;51.118;6.940;2022-11-15T21:01:56;12.32;70.61
33109;HTU21D;19481;51.118;6.940;2022-11-15T21:06:59;12.34;70.18
33109;HTU21D;19481;51.118;6.940;2022-11-15T21:12:01;12.30;72.33
33109;HTU21D;19481;51.118;6.940;2022-11-15T21:17:11;12.29;70.51
33109;HTU21D;19481;51.118;6.940;2022-11-15T21:22:14;12.27;70.87
33109;HTU21D;19481;51.118;6.940;2022-11-15T21:27:16;12.26;74.77
33109;HTU21D;19481;51.118;6.940;2022-11-15T21:32:18;12.20;71.29
33109;HTU21D;19481;51.118;6.940;2022-11-15T21:37:21;12.19;71.32
33109;HTU21D;19481;51.118;6.940;2022-11-15T21:42:23;12.14;71.76
33109;HTU21D;19481;51.118;6.940;2022-11-15T21:47:25;12.14;73.25
33109;HTU21D;19481;51.118;6.940;2022-11-15T21:52:27;12.13;71.96
33109;HTU21D;19481;51.118;6.940;2022-11-15T21:57:29;12.11;72.64
33109;HTU21D;19481;51.118;6.940;2022-11-15T22:02:31;12.08;72.47
33109;HTU21D;19481;51.118;6.940;2022-11-15T22:07:34;12.05;74.41
33109;HTU21D;19481;51.118;6.940;2022-11-15T22:12:35;12.02;73.41
33109;HTU21D;19481;51.118;6.940;2022-11-15T22:17:37;12.05;73.51
33109;HTU21D;19481;51.118;6.940;2022-11-15T22:22:58;12.06;76.30
33109;HTU21D;19481;51.118;6.940;2022-11-15T22:28:03;12.07;72.67
33109;HTU21D;19481;51.118;6.940;2022-11-15T22:33:04;12.05;73.56
33109;HTU21D;19481;51.118;6.940;2022-11-15T22:38:08;12.05;73.53
33109;HTU21D;19481;51.118;6.940;2022-11-15T22:43:11;12.06;72.83
33109;HTU21D;19481;51.118;6.940;2022-11-15T22:48:12;12.02;73.79
33109;HTU21D;19481;51.118;6.940;2022-11-15T22:53:16;12.06;75.33
33109;HTU21D;19481;51.118;6.940;2022-11-15T22:58:18;12.04;74.58
33109;HTU21D;19481;51.118;6.940;2022-11-15T23:03:20;12.03;73.70
33109;HTU21D;19481;51.118;6.940;2022-11-15T23:08:23;12.03;74.61
33109;HTU21D;19481;51.118;6.940;2022-11-15T23:13:26;12.03;73.19
33109;HTU21D;19481;51.118;6.940;2022-11-15T23:18:28;12.00;74.68
33109;HTU21D;19481;51.118;6.940;2022-11-15T23:23:34;12.01;73.68
33109;HTU21D;19481;51.118;6.940;2022-11-15T23:28:36;11.97;74.24
33109;HTU21D;19481;51.118;6.940;2022-11-15T23:33:38;12.00;73.98
33109;HTU21D;19481;51.118;6.940;2022-11-15T23:38:59;12.00;73.80
33109;HTU21D;19481;51.118;6.940;2022-11-15T23:44:02;12.01;73.80
33109;HTU21D;19481;51.118;6.940;2022-11-15T23:49:04;12.02;75.29
33109;HTU21D;19481;51.118;6.940;2022-11-15T23:54:08;12.03;74.85
33109;HTU21D;19481;51.118;6.940;2022-11-15T23:59:09;12.03;74.24
